createdAt,value
2023-01-09T00:00:54.418Z,6.10
2023-01-09T00:01:59.009Z,6.12
2023-01-09T00:03:05.784Z,6.11
2023-01-09T00:04:13.770Z,6.11
2023-01-09T00:05:20.140Z,6.11
2023-01-09T00:06:24.514Z,6.11
2023-01-09T00:07:28.243Z,6.10
2023-01-09T00:08:35.598Z,6.10
2023-01-09T00:09:46.409Z,6.08
2023-01-09T00:10:50.972Z,6.07
2023-01-09T00:12:00.441Z,6.08
2023-01-09T00:13:04.310Z,6.05
2023-01-09T00:14:13.831Z,6.00
2023-01-09T00:15:18.370Z,5.99
2023-01-09T00:16:26.500Z,5.98
2023-01-09T00:17:30.756Z,5.98
2023-01-09T00:18:35.972Z,5.99
2023-01-09T00:19:40.117Z,5.98
2023-01-09T00:20:44.262Z,5.97
2023-01-09T00:21:48.613Z,5.93
2023-01-09T00:22:52.337Z,5.92
2023-01-09T00:24:01.465Z,5.88
2023-01-09T00:25:10.413Z,5.87
2023-01-09T00:26:24.586Z,5.87
2023-01-09T00:27:36.390Z,5.82
2023-01-09T00:28:41.052Z,5.82
2023-01-09T00:29:47.818Z,5.81
2023-01-09T00:31:01.412Z,5.77
2023-01-09T00:32:10.187Z,5.76
2023-01-09T00:33:21.507Z,5.74
2023-01-09T00:34:26.355Z,5.75
2023-01-09T00:35:30.916Z,5.74
2023-01-09T00:36:35.459Z,5.71
2023-01-09T00:37:39.198Z,5.72
2023-01-09T00:38:43.115Z,5.73
2023-01-09T00:39:48.191Z,5.70
2023-01-09T00:40:52.742Z,5.69
2023-01-09T00:41:59.255Z,5.67
2023-01-09T00:43:03.051Z,5.61
2023-01-09T00:44:26.323Z,5.63
2023-01-09T00:45:31.277Z,5.63
2023-01-09T00:46:40.331Z,5.64
2023-01-09T00:47:52.797Z,5.64
2023-01-09T00:49:20.145Z,5.62
2023-01-09T00:50:32.265Z,5.61
2023-01-09T00:51:37.229Z,5.60
2023-01-09T00:52:42.292Z,5.60
2023-01-09T00:53:49.157Z,5.59
2023-01-09T00:54:56.018Z,5.57
2023-01-09T00:56:08.249Z,5.57
2023-01-09T00:57:14.779Z,5.57
2023-01-09T00:58:19.939Z,5.56
2023-01-09T00:59:24.310Z,5.52
2023-01-09T01:00:28.016Z,5.51
2023-01-09T01:01:32.450Z,5.51
2023-01-09T01:02:40.763Z,5.50
2023-01-09T01:03:56.965Z,5.47
2023-01-09T01:05:19.395Z,5.48
2023-01-09T01:06:45.362Z,5.46
2023-01-09T01:08:03.868Z,5.44
2023-01-09T01:09:12.511Z,5.44
2023-01-09T01:10:24.190Z,5.43
2023-01-09T01:11:43.855Z,5.42
2023-01-09T01:12:57.889Z,5.34
2023-01-09T01:14:02.040Z,5.35
2023-01-09T01:15:09.139Z,5.36
2023-01-09T01:16:14.675Z,5.39
2023-01-09T01:17:23.514Z,5.39
2023-01-09T01:18:42.672Z,5.39
2023-01-09T01:20:06.386Z,5.39
2023-01-09T01:21:17.888Z,5.37
2023-01-09T01:22:47.872Z,5.37
2023-01-09T01:24:00.853Z,5.35
2023-01-09T01:25:17.850Z,5.35
2023-01-09T01:26:21.476Z,5.33
2023-01-09T01:27:25.288Z,5.34
2023-01-09T01:28:29.674Z,5.34
2023-01-09T01:29:33.435Z,5.32
2023-01-09T01:30:42.285Z,5.32
2023-01-09T01:31:46.082Z,5.33
2023-01-09T01:32:49.725Z,5.31
2023-01-09T01:33:53.517Z,5.28
2023-01-09T01:34:57.410Z,5.24
2023-01-09T01:36:10.480Z,5.28
2023-01-09T01:37:16.301Z,5.26
2023-01-09T01:38:31.819Z,5.26
2023-01-09T01:39:35.582Z,5.27
2023-01-09T01:40:55.215Z,5.28
2023-01-09T01:41:59.682Z,5.24
2023-01-09T01:43:13.918Z,5.21
2023-01-09T01:45:16.392Z,5.20
2023-01-09T01:46:21.320Z,5.19
2023-01-09T01:48:09.162Z,5.19
2023-01-09T01:49:20.713Z,5.17
2023-01-09T01:50:54.166Z,5.17
2023-01-09T01:52:02.259Z,5.16
2023-01-09T01:53:43.583Z,5.15
2023-01-09T01:54:49.830Z,5.18
2023-01-09T01:56:35.676Z,5.17
2023-01-09T01:57:58.299Z,5.12
2023-01-09T01:59:15.053Z,5.14
2023-01-09T02:00:27.441Z,5.14
2023-01-09T02:01:34.172Z,5.13
2023-01-09T02:02:43.805Z,5.14
2023-01-09T02:03:49.044Z,5.15
2023-01-09T02:04:56.345Z,5.15
2023-01-09T02:06:00.752Z,5.14
2023-01-09T02:07:10.551Z,5.14
2023-01-09T02:08:14.582Z,5.14
2023-01-09T02:09:22.926Z,5.15
2023-01-09T02:10:30.524Z,5.15
2023-01-09T02:11:34.717Z,5.14
2023-01-09T02:12:38.713Z,5.12
2023-01-09T02:13:43.212Z,5.11
2023-01-09T02:14:49.301Z,5.12
2023-01-09T02:16:14.658Z,5.14
2023-01-09T02:18:03.300Z,5.14
2023-01-09T02:20:13.973Z,5.15
2023-01-09T02:21:48.990Z,5.16
2023-01-09T02:23:29.509Z,5.17
2023-01-09T02:25:22.969Z,5.19
2023-01-09T02:27:20.760Z,5.18
2023-01-09T02:29:17.938Z,5.16
2023-01-09T02:30:40.277Z,5.16
2023-01-09T02:32:18.290Z,5.17
2023-01-09T02:33:57.436Z,5.17
2023-01-09T02:35:29.629Z,5.18
2023-01-09T02:37:01.927Z,5.17
2023-01-09T02:39:03.473Z,5.16
2023-01-09T02:40:18.371Z,5.14
2023-01-09T02:41:41.269Z,5.14
2023-01-09T02:42:47.709Z,5.08
2023-01-09T02:44:12.287Z,5.06
2023-01-09T02:45:16.576Z,5.07
2023-01-09T02:46:23.248Z,5.08
2023-01-09T02:47:30.265Z,5.10
2023-01-09T02:48:34.302Z,5.11
2023-01-09T02:49:40.308Z,5.12
2023-01-09T02:51:35.626Z,5.12
2023-01-09T02:53:01.369Z,5.13
2023-01-09T02:54:44.922Z,5.10
2023-01-09T02:56:30.255Z,5.13
2023-01-09T02:58:17.505Z,5.08
2023-01-09T03:00:23.727Z,5.06
2023-01-09T03:01:52.650Z,5.07
2023-01-09T03:03:23.043Z,4.95
2023-01-09T03:04:58.381Z,4.97
2023-01-09T03:06:36.906Z,4.99
2023-01-09T03:08:03.624Z,4.98
2023-01-09T03:09:25.328Z,4.96
2023-01-09T03:11:01.405Z,4.97
2023-01-09T03:12:15.176Z,4.97
2023-01-09T03:13:24.802Z,4.93
2023-01-09T03:14:34.103Z,4.94
2023-01-09T03:15:44.749Z,4.91
2023-01-09T03:17:00.404Z,4.91
2023-01-09T03:18:08.961Z,4.94
2023-01-09T03:19:21.165Z,4.97
2023-01-09T03:20:30.267Z,4.98
2023-01-09T03:21:34.996Z,4.95
2023-01-09T03:22:46.451Z,4.97
2023-01-09T03:23:57.490Z,4.93
2023-01-09T03:25:01.070Z,4.93
2023-01-09T03:26:05.442Z,4.96
2023-01-09T03:27:09.984Z,4.97
2023-01-09T03:28:29.686Z,4.90
2023-01-09T03:29:33.513Z,4.97
2023-01-09T03:30:37.880Z,4.97
2023-01-09T03:31:41.659Z,4.93
2023-01-09T03:32:45.783Z,4.98
2023-01-09T03:33:50.034Z,4.95
2023-01-09T03:34:53.986Z,4.98
2023-01-09T03:35:57.747Z,4.96
2023-01-09T03:37:02.056Z,4.97
2023-01-09T03:38:07.312Z,4.93
2023-01-09T03:39:12.149Z,4.94
2023-01-09T03:40:16.676Z,4.92
2023-01-09T03:41:20.642Z,4.91
2023-01-09T03:42:25.920Z,4.89
2023-01-09T03:43:30.728Z,4.91
2023-01-09T03:44:35.589Z,4.92
2023-01-09T03:45:39.691Z,4.86
2023-01-09T03:46:45.071Z,4.87
2023-01-09T03:47:52.291Z,4.89
2023-01-09T03:48:57.103Z,4.92
2023-01-09T03:50:01.335Z,4.92
2023-01-09T03:51:04.933Z,4.93
2023-01-09T03:52:11.522Z,4.94
2023-01-09T03:53:15.812Z,4.95
2023-01-09T03:54:20.179Z,4.96
2023-01-09T03:55:23.953Z,4.94
2023-01-09T03:56:27.647Z,4.92
2023-01-09T03:57:31.591Z,4.95
2023-01-09T03:58:35.471Z,4.95
2023-01-09T03:59:40.267Z,4.91
2023-01-09T04:00:46.227Z,4.95
2023-01-09T04:01:50.510Z,4.95
2023-01-09T04:02:54.870Z,4.90
2023-01-09T04:03:58.777Z,4.93
2023-01-09T04:05:02.889Z,4.95
2023-01-09T04:06:09.798Z,4.93
2023-01-09T04:07:13.894Z,4.94
2023-01-09T04:08:19.847Z,4.94
2023-01-09T04:09:23.512Z,4.89
2023-01-09T04:10:27.313Z,4.91
2023-01-09T04:11:31.810Z,4.93
2023-01-09T04:12:35.675Z,4.92
2023-01-09T04:13:40.048Z,4.91
2023-01-09T04:14:44.158Z,4.90
2023-01-09T04:15:47.937Z,4.92
2023-01-09T04:16:51.602Z,4.93
2023-01-09T04:17:55.531Z,4.89
2023-01-09T04:18:59.538Z,4.91
2023-01-09T04:20:04.795Z,4.92
2023-01-09T04:21:11.912Z,4.91
2023-01-09T04:22:16.948Z,4.91
2023-01-09T04:23:21.341Z,4.85
2023-01-09T04:24:25.357Z,4.85
2023-01-09T04:25:29.993Z,4.85
2023-01-09T04:26:34.008Z,4.84
2023-01-09T04:27:38.147Z,4.87
2023-01-09T04:28:42.243Z,4.84
2023-01-09T04:29:46.375Z,4.84
2023-01-09T04:30:50.708Z,4.84
2023-01-09T04:31:55.707Z,4.84
2023-01-09T04:33:00.172Z,4.79
2023-01-09T04:34:04.157Z,4.77
2023-01-09T04:35:11.627Z,4.68
2023-01-09T04:36:15.988Z,4.68
2023-01-09T04:37:21.121Z,4.69
2023-01-09T04:38:25.024Z,4.72
2023-01-09T04:39:29.101Z,4.73
2023-01-09T04:40:32.921Z,4.73
2023-01-09T04:41:51.963Z,4.70
2023-01-09T04:42:55.858Z,4.71
2023-01-09T04:43:59.953Z,4.64
2023-01-09T04:45:05.642Z,4.65
2023-01-09T04:46:09.683Z,4.66
2023-01-09T04:47:13.866Z,4.65
2023-01-09T04:48:18.963Z,4.69
2023-01-09T04:49:23.682Z,4.69
2023-01-09T04:50:27.389Z,4.68
2023-01-09T04:51:31.571Z,4.67
2023-01-09T04:52:37.038Z,4.70
2023-01-09T04:53:41.958Z,4.70
2023-01-09T04:54:45.935Z,4.67
2023-01-09T04:55:51.174Z,4.66
2023-01-09T04:56:55.193Z,4.66
2023-01-09T04:58:01.605Z,4.65
2023-01-09T04:59:07.820Z,4.65
2023-01-09T05:00:12.514Z,4.67
2023-01-09T05:01:16.469Z,4.60
2023-01-09T05:02:20.471Z,4.58
2023-01-09T05:03:24.253Z,4.59
2023-01-09T05:04:28.223Z,4.58
2023-01-09T05:05:32.116Z,4.60
2023-01-09T05:06:36.272Z,4.63
2023-01-09T05:07:40.728Z,4.62
2023-01-09T05:08:44.842Z,4.63
2023-01-09T05:09:48.971Z,4.65
2023-01-09T05:10:52.601Z,4.65
2023-01-09T05:11:56.792Z,4.63
2023-01-09T05:13:01.229Z,4.64
2023-01-09T05:14:04.809Z,4.63
2023-01-09T05:15:09.923Z,4.63
2023-01-09T05:16:13.939Z,4.64
2023-01-09T05:17:18.036Z,4.66
2023-01-09T05:18:21.763Z,4.68
2023-01-09T05:19:25.768Z,4.69
2023-01-09T05:20:29.807Z,4.67
2023-01-09T05:21:34.499Z,4.69
2023-01-09T05:22:38.497Z,4.70
2023-01-09T05:23:42.272Z,4.70
2023-01-09T05:24:46.233Z,4.73
2023-01-09T05:25:49.827Z,4.72
2023-01-09T05:26:53.949Z,4.73
2023-01-09T05:27:58.247Z,4.76
2023-01-09T05:29:02.082Z,4.76
2023-01-09T05:30:06.906Z,4.76
2023-01-09T05:31:11.139Z,4.75
2023-01-09T05:32:15.825Z,4.77
2023-01-09T05:33:20.078Z,4.76
2023-01-09T05:34:25.333Z,4.76
2023-01-09T05:35:29.530Z,4.79
2023-01-09T05:36:33.853Z,4.78
2023-01-09T05:37:37.666Z,4.79
2023-01-09T05:38:42.343Z,4.80
2023-01-09T05:39:46.142Z,4.80
2023-01-09T05:40:50.148Z,4.82
2023-01-09T05:41:54.283Z,4.82
2023-01-09T05:42:58.479Z,4.84
2023-01-09T05:44:02.735Z,4.85
2023-01-09T05:45:09.753Z,4.87
2023-01-09T05:46:14.571Z,4.87
2023-01-09T05:47:18.498Z,4.89
2023-01-09T05:48:22.276Z,4.91
2023-01-09T05:49:26.236Z,4.92
2023-01-09T05:50:29.948Z,4.93
2023-01-09T05:51:34.376Z,4.95
2023-01-09T05:52:38.653Z,4.93
2023-01-09T05:53:42.237Z,4.98
2023-01-09T05:54:46.967Z,5.00
2023-01-09T05:55:51.280Z,5.03
2023-01-09T05:56:55.022Z,5.03
2023-01-09T05:57:58.656Z,5.02
2023-01-09T05:59:02.486Z,5.02
2023-01-09T06:00:07.107Z,5.05
2023-01-09T06:01:11.222Z,5.06
2023-01-09T06:02:15.085Z,5.09
2023-01-09T06:03:19.497Z,5.10
2023-01-09T06:04:23.212Z,5.13
2023-01-09T06:05:27.275Z,5.14
2023-01-09T06:06:31.117Z,5.17
2023-01-09T06:07:39.450Z,5.14
2023-01-09T06:08:43.318Z,5.14
2023-01-09T06:09:47.796Z,5.16
2023-01-09T06:10:51.687Z,5.16
2023-01-09T06:11:55.685Z,5.20
2023-01-09T06:13:01.990Z,5.21
2023-01-09T06:14:06.813Z,5.23
2023-01-09T06:15:11.418Z,5.20
2023-01-09T06:16:15.378Z,5.21
2023-01-09T06:17:19.365Z,5.22
2023-01-09T06:18:23.224Z,5.24
2023-01-09T06:19:27.017Z,5.21
2023-01-09T06:20:31.534Z,5.24
2023-01-09T06:21:35.355Z,5.24
2023-01-09T06:22:39.209Z,5.27
2023-01-09T06:23:43.962Z,5.28
2023-01-09T06:24:47.715Z,5.25
2023-01-09T06:25:51.285Z,5.23
2023-01-09T06:26:55.065Z,5.25
2023-01-09T06:27:58.943Z,5.25
2023-01-09T06:29:02.657Z,5.27
2023-01-09T06:30:07.756Z,5.30
2023-01-09T06:31:11.677Z,5.30
2023-01-09T06:32:19.419Z,5.33
2023-01-09T06:33:29.437Z,5.35
2023-01-09T06:34:33.229Z,5.32
2023-01-09T06:35:37.096Z,5.32
2023-01-09T06:36:40.887Z,5.32
2023-01-09T06:37:44.950Z,5.32
2023-01-09T06:38:48.957Z,5.29
2023-01-09T06:39:54.501Z,5.28
2023-01-09T06:40:58.189Z,5.28
2023-01-09T06:42:02.047Z,5.29
2023-01-09T06:43:05.863Z,5.33
2023-01-09T06:44:09.507Z,5.33
2023-01-09T06:45:14.889Z,5.37
2023-01-09T06:46:18.876Z,5.35
2023-01-09T06:47:22.789Z,5.38
2023-01-09T06:48:27.013Z,5.40
2023-01-09T06:49:31.123Z,5.39
2023-01-09T06:50:35.193Z,5.41
2023-01-09T06:51:39.210Z,5.42
2023-01-09T06:52:44.964Z,5.45
2023-01-09T06:53:48.928Z,5.45
2023-01-09T06:54:53.781Z,5.44
2023-01-09T06:56:03.176Z,5.42
2023-01-09T06:57:08.321Z,5.42
2023-01-09T06:58:12.938Z,5.42
2023-01-09T06:59:17.750Z,5.46
2023-01-09T07:00:23.116Z,5.42
2023-01-09T07:01:29.019Z,5.44
2023-01-09T07:02:34.143Z,5.44
2023-01-09T07:03:39.465Z,5.42
2023-01-09T07:04:44.344Z,5.41
2023-01-09T07:05:50.433Z,5.45
2023-01-09T07:06:54.733Z,5.46
2023-01-09T07:07:59.084Z,5.49
2023-01-09T07:09:03.254Z,5.50
2023-01-09T07:10:09.726Z,5.51
2023-01-09T07:11:13.749Z,5.51
2023-01-09T07:12:19.189Z,5.53
2023-01-09T07:13:23.578Z,5.55
2023-01-09T07:14:28.074Z,5.58
2023-01-09T07:15:32.261Z,5.62
2023-01-09T07:16:36.223Z,5.64
2023-01-09T07:17:40.035Z,5.62
2023-01-09T07:18:44.013Z,5.67
2023-01-09T07:19:47.719Z,5.68
2023-01-09T07:20:51.954Z,5.71
2023-01-09T07:21:56.163Z,5.70
2023-01-09T07:23:00.255Z,5.72
2023-01-09T07:24:04.070Z,5.76
2023-01-09T07:25:08.175Z,5.79
2023-01-09T07:26:13.865Z,5.82
2023-01-09T07:27:17.870Z,5.84
2023-01-09T07:28:21.607Z,5.87
2023-01-09T07:29:25.561Z,5.87
2023-01-09T07:30:29.357Z,5.87
2023-01-09T07:31:33.734Z,5.87
2023-01-09T07:32:38.710Z,5.89
2023-01-09T07:33:43.201Z,5.89
2023-01-09T07:34:54.328Z,5.92
2023-01-09T07:35:58.113Z,5.92
2023-01-09T07:37:02.019Z,5.92
2023-01-09T07:38:06.016Z,5.90
2023-01-09T07:39:10.132Z,5.92
2023-01-09T07:40:14.327Z,5.93
2023-01-09T07:41:18.590Z,5.94
2023-01-09T07:42:23.313Z,5.96
2023-01-09T07:43:27.610Z,5.92
2023-01-09T07:44:44.413Z,5.89
2023-01-09T07:45:48.444Z,5.91
2023-01-09T07:46:52.389Z,5.94
2023-01-09T07:47:56.392Z,5.94
2023-01-09T07:49:00.513Z,5.97
2023-01-09T07:50:05.481Z,6.00
2023-01-09T07:51:10.602Z,6.00
2023-01-09T07:52:15.041Z,6.05
2023-01-09T07:53:19.167Z,6.06
2023-01-09T07:54:23.080Z,6.07
2023-01-09T07:55:27.154Z,6.08
2023-01-09T07:56:31.284Z,6.10
2023-01-09T07:57:35.438Z,6.10
2023-01-09T07:58:41.099Z,6.13
2023-01-09T07:59:45.638Z,6.15
2023-01-09T08:00:57.294Z,6.18
2023-01-09T08:02:05.772Z,6.17
2023-01-09T08:03:09.458Z,6.19
2023-01-09T08:04:13.590Z,6.19
2023-01-09T08:05:20.218Z,6.20
2023-01-09T08:06:24.915Z,6.20
2023-01-09T08:07:28.751Z,6.23
2023-01-09T08:08:32.604Z,6.25
2023-01-09T08:09:36.796Z,6.26
2023-01-09T08:10:40.840Z,6.28
2023-01-09T08:11:44.705Z,6.27
2023-01-09T08:12:50.076Z,6.29
2023-01-09T08:13:54.195Z,6.30
2023-01-09T08:14:58.052Z,6.33
2023-01-09T08:16:02.126Z,6.33
2023-01-09T08:17:12.151Z,6.34
2023-01-09T08:18:16.167Z,6.35
2023-01-09T08:19:20.385Z,6.36
2023-01-09T08:20:24.331Z,6.36
2023-01-09T08:21:28.161Z,6.35
2023-01-09T08:22:32.207Z,6.36
2023-01-09T08:23:36.116Z,6.35
2023-01-09T08:24:39.768Z,6.36
2023-01-09T08:25:43.440Z,6.39
2023-01-09T08:26:47.177Z,6.41
2023-01-09T08:27:51.278Z,6.43
2023-01-09T08:28:55.960Z,6.46
2023-01-09T08:29:59.790Z,6.48
2023-01-09T08:31:06.559Z,6.48
2023-01-09T08:32:10.482Z,6.49
2023-01-09T08:33:14.887Z,6.51
2023-01-09T08:34:19.819Z,6.50
2023-01-09T08:35:23.706Z,6.52
2023-01-09T08:36:27.868Z,6.45
2023-01-09T08:37:31.778Z,6.40
2023-01-09T08:38:36.319Z,6.39
2023-01-09T08:39:40.588Z,6.40
2023-01-09T08:40:47.422Z,6.42
2023-01-09T08:42:10.021Z,6.42
2023-01-09T08:43:33.059Z,6.44
2023-01-09T08:44:55.736Z,6.46
2023-01-09T08:46:19.753Z,6.47
2023-01-09T08:47:25.018Z,6.50
2023-01-09T08:48:28.826Z,6.51
2023-01-09T08:49:38.880Z,6.54
2023-01-09T08:50:43.862Z,6.56
2023-01-09T08:51:47.872Z,6.51
2023-01-09T08:52:51.955Z,6.57
2023-01-09T08:53:57.415Z,6.58
2023-01-09T08:55:01.460Z,6.62
2023-01-09T08:56:05.948Z,6.67
2023-01-09T08:57:10.148Z,6.67
2023-01-09T08:58:14.413Z,6.71
2023-01-09T08:59:19.937Z,6.72
2023-01-09T09:00:25.898Z,6.71
2023-01-09T09:01:31.566Z,6.74
2023-01-09T09:02:35.661Z,6.70
2023-01-09T09:03:40.983Z,6.71
2023-01-09T09:04:46.567Z,6.68
2023-01-09T09:05:50.911Z,6.76
2023-01-09T09:06:55.585Z,6.78
2023-01-09T09:08:00.273Z,6.82
2023-01-09T09:09:05.290Z,6.86
2023-01-09T09:10:20.428Z,6.86
2023-01-09T09:11:30.654Z,6.88
2023-01-09T09:12:36.039Z,6.95
2023-01-09T09:13:40.069Z,6.97
2023-01-09T09:15:03.641Z,7.01
2023-01-09T09:16:09.086Z,7.07
2023-01-09T09:17:13.055Z,7.09
2023-01-09T09:18:16.827Z,7.15
2023-01-09T09:19:21.617Z,7.23
2023-01-09T09:20:30.420Z,7.27
2023-01-09T09:21:34.038Z,7.31
2023-01-09T09:22:38.126Z,7.36
2023-01-09T09:23:42.148Z,7.43
2023-01-09T09:24:45.861Z,7.49
2023-01-09T09:25:49.676Z,7.54
2023-01-09T09:26:53.662Z,7.59
2023-01-09T09:27:58.526Z,7.64
2023-01-09T09:29:02.589Z,7.66
2023-01-09T09:30:07.982Z,7.74
2023-01-09T09:31:12.553Z,7.81
2023-01-09T09:32:16.453Z,7.88
2023-01-09T09:33:20.394Z,7.96
2023-01-09T09:34:24.143Z,8.00
2023-01-09T09:35:28.987Z,8.06
2023-01-09T09:36:32.771Z,8.07
2023-01-09T09:37:37.512Z,8.10
2023-01-09T09:38:41.742Z,8.13
2023-01-09T09:39:45.737Z,8.14
2023-01-09T09:41:49.315Z,8.18
2023-01-09T09:43:46.065Z,8.18
2023-01-09T09:45:34.657Z,8.19
2023-01-09T09:47:35.238Z,8.24
2023-01-09T09:49:07.222Z,8.25
2023-01-09T09:50:23.882Z,8.27
2023-01-09T09:52:10.552Z,8.24
2023-01-09T09:53:25.909Z,8.29
2023-01-09T09:54:48.221Z,8.30
2023-01-09T09:55:53.178Z,8.34
2023-01-09T09:57:01.119Z,8.35
2023-01-09T09:58:40.263Z,8.36
2023-01-09T09:59:48.439Z,8.35
2023-01-09T10:00:53.831Z,8.34
2023-01-09T10:02:09.864Z,8.39
2023-01-09T10:03:34.093Z,8.36
2023-01-09T10:04:48.029Z,8.37
2023-01-09T10:05:54.773Z,8.41
2023-01-09T10:07:09.864Z,8.44
2023-01-09T10:08:43.777Z,8.46
2023-01-09T10:10:02.728Z,8.48
2023-01-09T10:11:22.878Z,8.47
2023-01-09T10:12:44.012Z,8.50
2023-01-09T10:14:13.236Z,8.50
2023-01-09T10:15:59.673Z,8.49
2023-01-09T10:17:15.373Z,8.53
2023-01-09T10:18:58.805Z,8.57
2023-01-09T10:20:50.261Z,8.56
2023-01-09T10:22:20.891Z,8.57
2023-01-09T10:23:58.468Z,8.61
2023-01-09T10:25:24.070Z,8.65
2023-01-09T10:26:43.761Z,8.67
2023-01-09T10:28:00.146Z,8.69
2023-01-09T10:29:14.203Z,8.71
2023-01-09T10:30:45.537Z,8.70
2023-01-09T10:32:39.858Z,8.74
2023-01-09T10:34:47.245Z,8.68
2023-01-09T10:36:09.891Z,8.77
2023-01-09T10:37:53.371Z,8.80
2023-01-09T10:39:04.423Z,8.82
2023-01-09T10:40:39.948Z,8.85
2023-01-09T10:42:13.132Z,8.89
2023-01-09T10:43:59.401Z,8.91
2023-01-09T10:45:16.067Z,8.94
2023-01-09T10:46:43.995Z,8.97
2023-01-09T10:47:49.937Z,9.01
2023-01-09T10:49:03.083Z,9.04
2023-01-09T10:50:34.586Z,9.07
2023-01-09T10:51:53.372Z,9.11
2023-01-09T10:52:58.441Z,9.11
2023-01-09T10:54:04.608Z,9.15
2023-01-09T10:55:17.975Z,9.14
2023-01-09T10:56:27.208Z,9.16
2023-01-09T10:57:54.361Z,9.21
2023-01-09T10:58:58.881Z,9.25
2023-01-09T11:00:05.583Z,9.27
2023-01-09T11:01:10.381Z,9.30
2023-01-09T11:02:43.770Z,9.36
2023-01-09T11:03:48.574Z,9.43
2023-01-09T11:04:53.054Z,9.48
2023-01-09T11:06:02.484Z,9.52
2023-01-09T11:07:29.246Z,9.58
2023-01-09T11:08:44.921Z,9.64
2023-01-09T11:10:07.528Z,9.70
2023-01-09T11:11:13.027Z,9.75
2023-01-09T11:12:34.120Z,9.79
2023-01-09T11:13:43.760Z,9.85
2023-01-09T11:14:48.119Z,9.88
2023-01-09T11:16:09.702Z,9.94
2023-01-09T11:17:27.080Z,9.97
2023-01-09T11:18:34.311Z,10.03
2023-01-09T11:19:38.703Z,10.07
2023-01-09T11:20:43.071Z,10.14
2023-01-09T11:21:47.259Z,10.17
2023-01-09T11:22:57.853Z,10.18
2023-01-09T11:24:22.311Z,10.24
2023-01-09T11:25:29.050Z,10.27
2023-01-09T11:26:35.201Z,10.26
2023-01-09T11:27:39.313Z,10.29
2023-01-09T11:28:43.261Z,10.34
2023-01-09T11:30:43.748Z,10.41
2023-01-09T11:32:00.071Z,10.40
2023-01-09T11:33:28.735Z,10.46
2023-01-09T11:34:37.504Z,10.50
2023-01-09T11:36:08.019Z,10.54
2023-01-09T11:37:20.145Z,10.58
2023-01-09T11:38:24.637Z,10.60
2023-01-09T11:39:33.624Z,10.62
2023-01-09T11:41:16.458Z,10.66
2023-01-09T11:42:45.353Z,10.66
2023-01-09T11:43:54.670Z,10.69
2023-01-09T11:45:01.720Z,10.71
2023-01-09T11:46:11.792Z,10.69
2023-01-09T11:47:39.669Z,10.74
2023-01-09T11:48:59.590Z,10.75
2023-01-09T11:50:23.345Z,10.79
2023-01-09T11:51:34.367Z,10.82
2023-01-09T11:52:38.182Z,10.85
2023-01-09T11:54:20.363Z,10.90
2023-01-09T11:55:29.347Z,10.93
2023-01-09T11:56:37.960Z,10.94
2023-01-09T11:57:42.096Z,10.97
2023-01-09T11:58:47.617Z,10.95
2023-01-09T11:59:54.501Z,10.96
2023-01-09T12:01:18.727Z,10.96
2023-01-09T12:02:56.532Z,10.98
2023-01-09T12:04:32.392Z,10.97
2023-01-09T12:05:58.286Z,11.01
2023-01-09T12:07:38.728Z,11.06
2023-01-09T12:09:07.103Z,11.12
2023-01-09T12:11:32.492Z,11.16
2023-01-09T12:14:02.440Z,11.17
2023-01-09T12:15:38.840Z,11.20
2023-01-09T12:17:11.773Z,11.21
2023-01-09T12:18:58.124Z,11.20
2023-01-09T12:20:38.671Z,11.15
2023-01-09T12:21:50.215Z,11.06
2023-01-09T12:23:32.368Z,11.04
2023-01-09T12:25:16.121Z,11.03
2023-01-09T12:26:36.743Z,10.99
2023-01-09T12:28:11.117Z,11.01
2023-01-09T12:30:30.689Z,10.98
2023-01-09T12:32:12.948Z,10.93
2023-01-09T12:33:53.207Z,10.90
2023-01-09T12:35:10.880Z,10.88
2023-01-09T12:36:41.878Z,10.86
2023-01-09T12:43:12.889Z,10.75
2023-01-09T12:44:51.717Z,10.76
2023-01-09T12:46:30.709Z,10.76
2023-01-09T12:47:46.198Z,10.74
2023-01-09T12:49:30.014Z,10.73
2023-01-09T12:51:11.531Z,10.71
2023-01-09T12:52:31.389Z,10.69
2023-01-09T12:53:55.656Z,10.68
2023-01-09T12:55:19.505Z,10.66
2023-01-09T12:56:37.418Z,10.65
2023-01-09T12:57:49.693Z,10.66
2023-01-09T12:59:17.206Z,10.66
2023-01-09T13:00:43.611Z,10.66
2023-01-09T13:01:50.423Z,10.67
2023-01-09T13:03:20.483Z,10.66
2023-01-09T13:04:36.793Z,10.65
2023-01-09T13:05:57.707Z,10.65
2023-01-09T13:07:19.055Z,10.64
2023-01-09T13:08:52.882Z,10.65
2023-01-09T13:10:22.996Z,10.65
2023-01-09T13:11:41.279Z,10.66
2023-01-09T13:12:48.623Z,10.67
2023-01-09T13:14:14.224Z,10.68
2023-01-09T13:15:39.977Z,10.69
2023-01-09T13:16:59.527Z,10.68
2023-01-09T13:18:37.138Z,10.68
2023-01-09T13:19:51.014Z,10.70
2023-01-09T13:21:02.338Z,10.68
2023-01-09T13:22:14.755Z,10.70
2023-01-09T13:23:41.975Z,10.69
2023-01-09T13:25:19.831Z,10.70
2023-01-09T13:26:29.987Z,10.70
2023-01-09T13:27:41.190Z,10.71
2023-01-09T13:28:54.813Z,10.69
2023-01-09T13:30:19.877Z,10.69
2023-01-09T13:32:00.428Z,10.66
2023-01-09T13:33:38.811Z,10.64
2023-01-09T13:34:48.258Z,10.66
2023-01-09T13:36:10.053Z,10.64
2023-01-09T13:37:39.782Z,10.64
2023-01-09T13:38:50.086Z,10.61
2023-01-09T13:40:08.046Z,10.61
2023-01-09T13:41:38.700Z,10.58
2023-01-09T13:42:49.080Z,10.59
2023-01-09T13:44:02.445Z,10.58
2023-01-09T13:45:25.459Z,10.58
2023-01-09T13:46:59.462Z,10.57
2023-01-09T13:48:18.465Z,10.59
2023-01-09T13:50:01.442Z,10.58
2023-01-09T13:51:43.107Z,10.58
2023-01-09T13:52:49.729Z,10.58
2023-01-09T13:53:53.901Z,10.58
2023-01-09T13:55:02.827Z,10.58
2023-01-09T13:56:11.639Z,10.58
2023-01-09T13:57:18.221Z,10.58
2023-01-09T13:58:30.095Z,10.58
2023-01-09T13:59:34.110Z,10.56
2023-01-09T14:00:38.698Z,10.56
2023-01-09T14:01:44.390Z,10.57
2023-01-09T14:02:49.596Z,10.56
2023-01-09T14:04:22.959Z,10.56
2023-01-09T14:05:46.980Z,10.55
2023-01-09T14:07:23.900Z,10.52
2023-01-09T14:08:31.596Z,10.51
2023-01-09T14:09:38.822Z,10.51
2023-01-09T14:10:52.526Z,10.50
2023-01-09T14:12:07.357Z,10.51
2023-01-09T14:13:19.738Z,10.48
2023-01-09T14:14:34.160Z,10.46
2023-01-09T14:15:45.990Z,10.46
2023-01-09T14:16:50.882Z,10.46
2023-01-09T14:18:07.080Z,10.47
2023-01-09T14:19:40.100Z,10.46
2023-01-09T14:21:01.571Z,10.44
2023-01-09T14:22:08.233Z,10.42
2023-01-09T14:23:50.344Z,10.43
2023-01-09T14:25:01.926Z,10.40
2023-01-09T14:26:06.813Z,10.40
2023-01-09T14:27:54.944Z,10.39
2023-01-09T14:29:32.838Z,10.40
2023-01-09T14:30:59.511Z,10.38
2023-01-09T14:32:26.644Z,10.39
2023-01-09T14:33:32.782Z,10.38
2023-01-09T14:34:41.187Z,10.38
2023-01-09T14:36:27.400Z,10.39
2023-01-09T14:37:37.884Z,10.38
2023-01-09T14:38:49.552Z,10.38
2023-01-09T14:39:54.151Z,10.39
2023-01-09T14:41:42.375Z,10.38
2023-01-09T14:42:52.238Z,10.38
2023-01-09T14:44:11.280Z,10.37
2023-01-09T14:45:22.633Z,10.37
2023-01-09T14:46:38.178Z,10.36
2023-01-09T14:47:48.974Z,10.34
2023-01-09T14:49:19.395Z,10.35
2023-01-09T14:50:45.834Z,10.32
2023-01-09T14:51:52.085Z,10.33
2023-01-09T14:53:22.807Z,10.30
2023-01-09T14:54:38.147Z,10.30
2023-01-09T14:55:58.143Z,10.27
2023-01-09T14:57:02.796Z,10.28
2023-01-09T14:58:24.539Z,10.29
2023-01-09T14:59:30.095Z,10.28
2023-01-09T15:00:36.988Z,10.27
2023-01-09T15:01:47.564Z,10.26
2023-01-09T15:02:54.711Z,10.25
2023-01-09T15:04:06.240Z,10.25
2023-01-09T15:05:17.523Z,10.17
2023-01-09T15:06:31.266Z,10.17
2023-01-09T15:07:44.950Z,10.13
2023-01-09T15:08:58.657Z,10.13
2023-01-09T15:10:04.895Z,10.15
2023-01-09T15:11:14.397Z,10.16
2023-01-09T15:12:25.035Z,10.18
2023-01-09T15:13:35.980Z,10.18
2023-01-09T15:14:45.969Z,10.21
2023-01-09T15:15:51.105Z,10.20
2023-01-09T15:16:55.524Z,10.21
2023-01-09T15:18:08.504Z,10.23
2023-01-09T15:19:15.893Z,10.23
2023-01-09T15:20:27.482Z,10.22
2023-01-09T15:21:32.823Z,10.22
2023-01-09T15:22:38.401Z,10.23
2023-01-09T15:23:42.358Z,10.20
2023-01-09T15:24:46.380Z,10.22
2023-01-09T15:25:50.219Z,10.21
2023-01-09T15:26:58.973Z,10.21
2023-01-09T15:28:33.970Z,10.20
2023-01-09T15:29:38.116Z,10.19
2023-01-09T15:30:43.852Z,10.18
2023-01-09T15:32:01.852Z,10.17
2023-01-09T15:33:24.480Z,10.17
2023-01-09T15:34:30.265Z,10.16
2023-01-09T15:35:34.058Z,10.19
2023-01-09T15:36:38.682Z,10.20
2023-01-09T15:37:43.738Z,10.20
2023-01-09T15:38:50.714Z,10.19
2023-01-09T15:39:55.869Z,10.20
2023-01-09T15:41:07.246Z,10.19
2023-01-09T15:42:45.833Z,10.23
2023-01-09T15:43:50.417Z,10.21
2023-01-09T15:44:54.299Z,10.20
2023-01-09T15:45:59.550Z,10.23
2023-01-09T15:47:07.554Z,10.20
2023-01-09T15:48:33.364Z,10.24
2023-01-09T15:49:38.418Z,10.28
2023-01-09T15:50:43.779Z,10.25
2023-01-09T15:51:49.488Z,10.26
2023-01-09T15:52:56.672Z,10.29
2023-01-09T15:54:02.568Z,10.29
2023-01-09T15:55:35.701Z,10.29
2023-01-09T15:56:39.822Z,10.35
2023-01-09T15:57:52.484Z,10.41
2023-01-09T15:58:58.352Z,10.43
2023-01-09T16:00:34.817Z,10.43
2023-01-09T16:01:41.967Z,10.39
2023-01-09T16:03:05.325Z,10.40